Time;durP1;ratioP1;P1;durP2;ratioP2;P2;SDS_P1;SDS_P2;PMS_P1;PMS_P2;Temp;Humidity;BMP_temperature;BMP_pressure;BME280_temperature;BME280_humidity;BME280_pressure;Samples;Min_cycle;Max_cycle;Signal;HPM_P1;HPM_P2
2021/04/07 00:00:29;;;;;;;9.25;1.83;;;2.30;89.70;;;;;;5095374;28;20056;-79
2021/04/07 00:02:55;;;;;;;11.40;1.70;;;2.30;89.40;;;;;;5094843;28;20503;-79
2021/04/07 00:05:26;;;;;;;8.73;1.50;;;2.20;89.40;;;;;;5095632;28;20094;-78
2021/04/07 00:07:51;;;;;;;11.73;1.60;;;2.30;89.30;;;;;;5095552;28;20059;-79
2021/04/07 00:10:19;;;;;;;8.27;1.50;;;2.20;89.00;;;;;;5095122;28;20040;-78
2021/04/07 00:12:45;;;;;;;8.43;1.92;;;2.20;88.90;;;;;;5095035;28;20134;-79
2021/04/07 00:15:20;;;;;;;10.48;1.92;;;2.20;88.90;;;;;;5095651;28;20132;-78
2021/04/07 00:17:46;;;;;;;7.25;1.73;;;2.20;88.90;;;;;;5112744;28;20054;-79
2021/04/07 00:20:15;;;;;;;7.45;1.65;;;2.10;88.80;;;;;;5115702;28;20044;-79
2021/04/07 00:22:41;;;;;;;9.85;1.70;;;2.10;88.80;;;;;;5115854;28;20047;-78
2021/04/07 00:25:07;;;;;;;9.00;1.55;;;2.10;88.70;;;;;;5115225;28;20071;-79
2021/04/07 00:27:35;;;;;;;11.95;1.65;;;2.10;88.60;;;;;;5097247;28;20097;-79
2021/04/07 00:30:02;;;;;;;7.07;1.42;;;2.10;88.80;;;;;;5115515;28;20525;-79
2021/04/07 00:32:27;;;;;;;7.72;1.40;;;2.10;88.90;;;;;;5115182;28;20192;-79
2021/04/07 00:34:53;;;;;;;9.38;1.80;;;2.00;88.90;;;;;;5114844;28;20558;-79
2021/04/07 00:37:19;;;;;;;7.55;1.33;;;2.00;89.00;;;;;;5115618;28;20115;-79
2021/04/07 00:39:44;;;;;;;11.13;1.70;;;2.00;89.10;;;;;;5114491;28;20066;-79
2021/04/07 00:42:11;;;;;;;11.25;2.00;;;2.00;89.00;;;;;;5115195;28;20051;-79
2021/04/07 00:44:38;;;;;;;4.90;1.40;;;2.00;88.70;;;;;;5115638;28;20055;-79
2021/04/07 00:47:04;;;;;;;8.10;1.60;;;1.90;88.80;;;;;;5114315;28;20047;-78
2021/04/07 00:49:30;;;;;;;8.95;1.70;;;1.90;88.90;;;;;;5114006;28;20047;-79
2021/04/07 00:51:56;;;;;;;9.32;1.60;;;1.90;89.20;;;;;;5115112;28;20052;-79
2021/04/07 00:54:22;;;;;;;7.68;1.55;;;1.90;89.40;;;;;;5114083;28;20075;-79
2021/04/07 00:56:48;;;;;;;6.78;1.35;;;1.90;89.50;;;;;;5114832;28;20052;-79
2021/04/07 00:59:15;;;;;;;7.20;1.35;;;1.90;89.60;;;;;;5114789;28;20399;-79
2021/04/07 01:01:42;;;;;;;8.55;1.80;;;1.90;89.60;;;;;;5114673;28;20086;-79
2021/04/07 01:04:08;;;;;;;8.90;1.55;;;1.90;89.50;;;;;;5106839;28;20051;-79
2021/04/07 01:06:36;;;;;;;11.45;1.67;;;1.90;89.50;;;;;;5110270;28;20079;-79
2021/04/07 01:09:02;;;;;;;7.95;1.50;;;1.80;89.80;;;;;;5110753;28;20070;-79
2021/04/07 01:11:28;;;;;;;12.38;1.88;;;1.80;89.50;;;;;;5108343;28;20047;-79
2021/04/07 01:13:54;;;;;;;11.18;1.92;;;1.80;89.50;;;;;;5102164;28;20142;-79
2021/04/07 01:16:21;;;;;;;10.85;1.77;;;1.80;89.50;;;;;;5105342;28;20067;-79
2021/04/07 01:18:47;;;;;;;9.60;1.70;;;1.80;89.70;;;;;;5096894;28;20127;-78
2021/04/07 01:21:13;;;;;;;8.27;1.60;;;1.80;89.80;;;;;;5095950;28;20128;-79
2021/04/07 01:23:46;;;;;;;10.43;1.50;;;1.80;89.90;;;;;;5114286;28;20044;-79
2021/04/07 01:26:12;;;;;;;6.40;1.27;;;1.80;89.80;;;;;;5103924;28;20051;-79
2021/04/07 01:28:38;;;;;;;11.50;1.92;;;1.80;89.70;;;;;;5114047;28;20048;-79
2021/04/07 01:31:04;;;;;;;8.60;1.40;;;1.70;89.60;;;;;;5113983;28;20044;-79
2021/04/07 01:33:30;;;;;;;8.57;1.67;;;1.80;89.60;;;;;;5113969;28;20071;-79
2021/04/07 01:35:56;;;;;;;8.13;1.40;;;1.80;89.90;;;;;;5113458;28;20071;-79
2021/04/07 01:38:22;;;;;;;8.88;1.58;;;1.70;90.00;;;;;;5114063;28;20048;-78
2021/04/07 01:40:50;;;;;;;8.57;1.73;;;1.70;90.00;;;;;;5113483;28;20055;-79
2021/04/07 01:43:20;;;;;;;8.45;1.75;;;1.80;90.00;;;;;;5113903;28;20051;-79
2021/04/07 01:45:47;;;;;;;8.60;1.67;;;1.80;90.10;;;;;;5112955;28;20122;-79
2021/04/07 01:48:16;;;;;;;9.00;1.55;;;1.70;90.00;;;;;;5114169;28;20086;-79
2021/04/07 01:50:42;;;;;;;7.53;1.77;;;1.80;90.00;;;;;;5112916;28;20096;-78
2021/04/07 01:53:12;;;;;;;8.18;1.40;;;1.70;90.00;;;;;;5114234;28;20459;-78
2021/04/07 01:55:38;;;;;;;7.68;1.48;;;1.80;90.10;;;;;;5109121;28;20075;-79
2021/04/07 01:58:04;;;;;;;8.50;1.65;;;1.80;90.10;;;;;;5100252;28;20074;-78
2021/04/07 02:00:30;;;;;;;7.47;1.27;;;1.70;90.10;;;;;;5113380;28;20079;-78
2021/04/07 02:02:56;;;;;;;10.65;1.80;;;1.80;90.20;;;;;;5112832;28;20117;-78
2021/04/07 02:05:21;;;;;;;8.68;1.20;;;1.80;90.10;;;;;;5113479;28;20063;-79
2021/04/07 02:07:47;;;;;;;7.32;1.45;;;1.70;90.20;;;;;;5113485;28;20051;-79
2021/04/07 02:10:13;;;;;;;8.20;1.40;;;1.80;90.30;;;;;;5113217;28;20479;-79
2021/04/07 02:12:39;;;;;;;6.65;1.20;;;1.80;90.20;;;;;;5098256;28;20044;-79
2021/04/07 02:15:15;;;;;;;6.32;1.00;;;1.70;90.20;;;;;;5093110;28;20082;-78
2021/04/07 02:17:41;;;;;;;9.38;1.42;;;1.70;90.30;;;;;;5112235;28;20050;-78
2021/04/07 02:20:08;;;;;;;6.43;1.30;;;1.80;90.30;;;;;;5113019;28;20130;-79
2021/04/07 02:22:34;;;;;;;6.28;1.30;;;1.70;90.30;;;;;;5113609;28;20126;-79
2021/04/07 02:25:00;;;;;;;6.60;1.33;;;1.80;90.40;;;;;;5112691;28;20134;-79
2021/04/07 02:27:26;;;;;;;5.00;1.10;;;1.70;90.40;;;;;;5108855;28;20449;-79
2021/04/07 02:29:56;;;;;;;9.95;1.55;;;1.80;90.40;;;;;;5109546;28;20047;-79
2021/04/07 02:32:23;;;;;;;5.72;1.20;;;1.70;90.40;;;;;;5110435;28;20055;-78
2021/04/07 02:34:50;;;;;;;5.93;1.15;;;1.80;90.40;;;;;;5109784;28;20127;-79
2021/04/07 02:37:17;;;;;;;4.65;1.10;;;1.80;90.30;;;;;;5107258;28;20040;-79
2021/04/07 02:39:44;;;;;;;7.90;1.20;;;1.80;90.40;;;;;;5095281;28;20047;-79
2021/04/07 02:42:12;;;;;;;6.63;1.30;;;1.80;90.40;;;;;;5092668;28;20072;-79
2021/04/07 02:44:39;;;;;;;6.32;1.30;;;1.80;90.50;;;;;;5097442;28;20109;-79
2021/04/07 02:47:06;;;;;;;6.38;1.00;;;1.80;90.50;;;;;;5110504;28;20043;-79
2021/04/07 02:49:32;;;;;;;6.13;1.05;;;1.80;90.50;;;;;;5101019;28;20134;-78
2021/04/07 02:51:58;;;;;;;4.72;1.10;;;1.80;90.40;;;;;;5112282;28;20047;-79
2021/04/07 02:54:24;;;;;;;6.28;1.40;;;1.80;90.40;;;;;;5112817;28;20049;-79
2021/04/07 02:56:49;;;;;;;8.13;1.38;;;1.90;90.50;;;;;;5104592;28;20506;-78
2021/04/07 02:59:16;;;;;;;6.25;1.10;;;1.90;90.60;;;;;;5091944;28;20052;-79
2021/04/07 03:01:42;;;;;;;6.32;1.10;;;1.90;90.70;;;;;;5105781;28;20059;-78
2021/04/07 03:04:07;;;;;;;5.93;1.02;;;1.90;90.70;;;;;;5113140;28;20043;-79
2021/04/07 03:06:34;;;;;;;3.72;0.90;;;1.90;90.70;;;;;;5112512;28;20055;-79
2021/04/07 03:08:59;;;;;;;5.15;1.00;;;2.00;90.70;;;;;;5112461;28;20059;-79
2021/04/07 03:11:26;;;;;;;4.32;1.00;;;2.00;90.70;;;;;;5113066;28;20048;-79
2021/04/07 03:13:54;;;;;;;5.50;1.30;;;1.90;90.70;;;;;;5116179;28;20051;-80
2021/04/07 03:16:20;;;;;;;4.22;0.75;;;2.00;90.70;;;;;;5116585;28;20127;-79
2021/04/07 03:18:46;;;;;;;4.57;1.05;;;2.00;90.70;;;;;;5116908;28;20480;-80
2021/04/07 03:21:12;;;;;;;5.22;0.77;;;2.00;90.60;;;;;;5116533;28;20040;-80
2021/04/07 03:23:38;;;;;;;5.57;0.80;;;2.00;90.70;;;;;;5116824;28;20385;-80
2021/04/07 03:26:04;;;;;;;2.47;0.80;;;2.00;90.70;;;;;;5116637;28;20067;-79
2021/04/07 03:28:30;;;;;;;2.55;0.88;;;2.00;90.70;;;;;;5116221;28;20513;-80
2021/04/07 03:30:55;;;;;;;5.32;0.82;;;2.00;90.60;;;;;;5116417;28;20471;-79
2021/04/07 03:33:21;;;;;;;4.80;1.00;;;2.00;90.60;;;;;;5116946;28;20052;-79
2021/04/07 03:35:48;;;;;;;3.92;0.95;;;2.00;90.70;;;;;;5115747;28;20096;-79
2021/04/07 03:38:14;;;;;;;2.88;0.82;;;2.00;90.70;;;;;;5116569;28;20047;-78
2021/04/07 03:40:40;;;;;;;6.70;0.90;;;2.00;90.70;;;;;;5116758;28;20054;-79
2021/04/07 03:43:07;;;;;;;3.20;0.75;;;2.00;90.70;;;;;;5110088;28;20052;-80
2021/04/07 03:45:34;;;;;;;6.00;0.93;;;2.00;90.70;;;;;;5109165;28;20044;-79
2021/04/07 03:48:00;;;;;;;4.20;0.77;;;2.00;90.70;;;;;;5100317;28;20491;-80
2021/04/07 03:50:26;;;;;;;3.13;0.82;;;2.00;90.70;;;;;;5097770;28;20109;-80
2021/04/07 03:52:52;;;;;;;2.58;0.70;;;2.00;90.80;;;;;;5105152;28;20522;-80
2021/04/07 03:55:19;;;;;;;3.53;0.80;;;2.10;90.80;;;;;;5098361;28;20161;-79
2021/04/07 03:57:44;;;;;;;4.90;1.00;;;2.10;90.90;;;;;;5103044;28;20051;-80
2021/04/07 04:00:11;;;;;;;6.18;0.70;;;2.10;90.90;;;;;;5105016;28;20497;-80
2021/04/07 04:02:36;;;;;;;3.83;0.90;;;2.10;90.90;;;;;;5112570;28;20083;-80
2021/04/07 04:05:03;;;;;;;2.70;0.70;;;2.10;90.80;;;;;;5111282;28;20071;-80
2021/04/07 04:07:29;;;;;;;3.13;0.70;;;2.10;90.90;;;;;;5116148;28;20075;-80
2021/04/07 04:09:54;;;;;;;4.57;0.90;;;2.10;90.90;;;;;;5115275;28;20090;-80
2021/04/07 04:12:20;;;;;;;2.92;0.80;;;2.10;90.80;;;;;;5108844;28;20048;-80
2021/04/07 04:14:45;;;;;;;2.47;0.60;;;2.10;90.80;;;;;;5097833;28;20412;-80
2021/04/07 04:17:11;;;;;;;2.13;0.70;;;2.00;90.80;;;;;;5095431;28;20495;-80
2021/04/07 04:19:37;;;;;;;3.88;0.77;;;2.10;90.80;;;;;;5110531;28;20047;-81
2021/04/07 04:22:04;;;;;;;4.85;0.80;;;2.10;90.90;;;;;;5108593;28;20063;-81
2021/04/07 04:24:30;;;;;;;2.97;0.75;;;2.10;90.90;;;;;;5095088;28;20040;-80
2021/04/07 04:26:58;;;;;;;2.10;0.52;;;2.10;91.00;;;;;;5111434;28;20055;-80
2021/04/07 04:29:24;;;;;;;2.67;0.65;;;2.10;91.20;;;;;;5110087;28;20079;-81
2021/04/07 04:31:50;;;;;;;2.53;0.73;;;2.10;91.00;;;;;;5094512;28;20086;-81
2021/04/07 04:34:15;;;;;;;3.45;0.70;;;2.10;91.00;;;;;;5095568;28;20051;-80
2021/04/07 04:36:41;;;;;;;1.35;0.60;;;2.10;91.00;;;;;;5095372;28;20047;-81
2021/04/07 04:39:07;;;;;;;2.65;0.70;;;2.10;91.00;;;;;;5094480;28;20438;-81
2021/04/07 04:41:32;;;;;;;3.83;0.70;;;2.10;91.00;;;;;;5095304;28;20177;-81
2021/04/07 04:43:58;;;;;;;2.75;0.70;;;2.10;91.10;;;;;;5095220;28;20395;-81
2021/04/07 04:46:26;;;;;;;2.03;0.73;;;2.10;91.10;;;;;;5098343;28;20048;-81
2021/04/07 04:48:54;;;;;;;3.60;0.70;;;2.10;91.10;;;;;;5095004;28;20472;-81
2021/04/07 04:51:43;;;;;;;3.55;0.55;;;2.20;91.10;;;;;;5094389;28;20484;-80
2021/04/07 04:54:19;;;;;;;3.92;0.90;;;2.20;91.10;;;;;;5042182;28;20055;-81
2021/04/07 04:56:48;;;;;;;1.80;0.55;;;2.20;91.10;;;;;;5099157;28;20510;-81
2021/04/07 04:59:13;;;;;;;2.28;0.60;;;2.20;91.10;;;;;;5094332;28;20131;-81
2021/04/07 05:01:39;;;;;;;2.25;0.57;;;2.20;91.10;;;;;;5106281;28;20146;-82
2021/04/07 05:04:05;;;;;;;3.38;0.80;;;2.20;91.00;;;;;;5115009;28;20067;-81
2021/04/07 05:06:33;;;;;;;2.85;0.70;;;2.20;91.00;;;;;;5114276;28;20047;-82
2021/04/07 05:09:00;;;;;;;3.17;0.63;;;2.20;91.00;;;;;;5113328;28;20391;-81
2021/04/07 05:11:25;;;;;;;3.33;0.60;;;2.20;90.90;;;;;;5104925;28;20044;-80
2021/04/07 05:13:51;;;;;;;2.10;0.50;;;2.20;90.90;;;;;;5108146;28;20142;-81
2021/04/07 05:16:17;;;;;;;2.25;0.73;;;2.20;90.80;;;;;;5108031;28;20039;-81
2021/04/07 05:18:42;;;;;;;2.67;0.70;;;2.20;90.90;;;;;;5108950;28;20048;-81
2021/04/07 05:21:08;;;;;;;2.75;0.60;;;2.20;90.90;;;;;;5107691;28;20077;-81
2021/04/07 05:23:34;;;;;;;3.22;0.70;;;2.20;90.90;;;;;;5114933;28;20051;-81
2021/04/07 05:26:03;;;;;;;1.83;0.52;;;2.20;90.80;;;;;;5114798;28;20065;-81
2021/04/07 05:28:29;;;;;;;2.47;0.60;;;2.20;90.80;;;;;;5114245;28;20043;-81
2021/04/07 05:31:01;;;;;;;2.13;0.65;;;2.30;90.80;;;;;;5094200;28;20209;-81
2021/04/07 05:33:32;;;;;;;2.30;0.50;;;2.30;90.80;;;;;;5098035;28;20048;-80
2021/04/07 05:36:02;;;;;;;1.95;0.60;;;2.30;90.90;;;;;;5101294;28;20487;-80
2021/04/07 05:38:28;;;;;;;2.83;0.70;;;2.30;90.90;;;;;;5112991;28;20048;-82
2021/04/07 05:40:55;;;;;;;1.42;0.60;;;2.30;90.90;;;;;;5100945;28;20446;-81
2021/04/07 05:43:22;;;;;;;3.15;0.75;;;2.30;90.90;;;;;;5093887;28;20058;-84
2021/04/07 05:45:51;;;;;;;2.42;0.80;;;2.40;90.90;;;;;;5106846;28;20445;-85
2021/04/07 05:48:17;;;;;;;3.13;0.73;;;2.30;90.90;;;;;;5113787;28;20048;-84
2021/04/07 05:50:46;;;;;;;3.53;0.95;;;2.30;90.80;;;;;;5114058;28;20117;-84
2021/04/07 05:53:15;;;;;;;2.17;0.60;;;2.40;90.80;;;;;;5114115;28;20044;-81
2021/04/07 05:55:54;;;;;;;2.25;0.50;;;2.40;90.80;;;;;;5106672;28;20077;-82
2021/04/07 05:58:23;;;;;;;3.28;0.70;;;2.40;90.80;;;;;;5107254;28;20139;-82
2021/04/07 06:00:59;;;;;;;3.20;0.75;;;2.40;90.70;;;;;;5090872;28;20059;-79
2021/04/07 06:03:28;;;;;;;2.95;0.77;;;2.40;90.70;;;;;;5104676;28;20047;-81
2021/04/07 06:05:54;;;;;;;4.35;1.13;;;2.40;90.70;;;;;;5106309;28;20079;-81
2021/04/07 06:08:20;;;;;;;4.28;0.93;;;2.50;90.70;;;;;;5105459;28;20071;-81
2021/04/07 06:10:48;;;;;;;3.47;0.70;;;2.40;90.60;;;;;;5112235;28;20079;-80
2021/04/07 06:13:18;;;;;;;3.88;0.70;;;2.50;90.60;;;;;;5113194;28;20052;-81
2021/04/07 06:15:45;;;;;;;2.47;0.60;;;2.50;90.70;;;;;;5107065;28;20491;-80
2021/04/07 06:18:14;;;;;;;2.45;0.80;;;2.50;90.70;;;;;;5113473;28;20396;-80
2021/04/07 06:20:42;;;;;;;3.65;0.93;;;2.50;90.70;;;;;;5109202;28;20052;-80
2021/04/07 06:23:09;;;;;;;3.45;0.80;;;2.50;90.70;;;;;;5109461;28;20558;-81
2021/04/07 06:25:36;;;;;;;4.22;0.85;;;2.60;90.70;;;;;;5105933;28;20046;-80
2021/04/07 06:28:04;;;;;;;6.32;1.10;;;2.60;91.00;;;;;;5104407;28;20048;-80
2021/04/07 06:33:11;;;;;;;2.38;0.82;;;2.60;90.90;;;;;;5110571;28;20043;-80
2021/04/07 06:35:38;;;;;;;4.32;0.85;;;2.70;90.90;;;;;;5110263;28;20047;-79
2021/04/07 06:38:04;;;;;;;5.95;1.30;;;2.70;90.80;;;;;;5105807;28;20048;-82
2021/04/07 06:40:33;;;;;;;3.10;0.80;;;2.70;90.80;;;;;;5112588;28;20047;-80
2021/04/07 06:43:00;;;;;;;7.72;1.45;;;2.80;90.80;;;;;;5113034;28;20047;-79
2021/04/07 06:45:28;;;;;;;3.85;0.93;;;2.90;90.90;;;;;;5107148;28;20040;-78
2021/04/07 06:47:54;;;;;;;4.32;1.25;;;2.90;90.90;;;;;;5111645;28;20059;-80
2021/04/07 06:50:23;;;;;;;7.15;1.20;;;2.90;90.80;;;;;;5107362;28;20098;-78
2021/04/07 06:52:50;;;;;;;8.40;1.58;;;3.00;90.70;;;;;;5106685;28;20651;-78
2021/04/07 06:55:17;;;;;;;6.85;1.42;;;3.00;90.80;;;;;;5105685;28;20043;-79
2021/04/07 06:57:44;;;;;;;6.63;1.45;;;3.00;90.90;;;;;;5105612;28;20039;-77
2021/04/07 07:00:11;;;;;;;7.78;1.60;;;3.00;90.80;;;;;;5111257;28;20089;-78
2021/04/07 07:02:37;;;;;;;5.38;1.00;;;3.10;90.80;;;;;;5112853;28;20039;-78
2021/04/07 07:05:06;;;;;;;4.10;1.15;;;3.10;90.70;;;;;;5099173;28;20056;-78
2021/04/07 07:07:33;;;;;;;11.07;1.90;;;3.20;90.50;;;;;;5108726;28;20441;-78
2021/04/07 07:09:59;;;;;;;10.27;2.40;;;3.20;90.70;;;;;;5112608;28;20048;-78
2021/04/07 07:12:25;;;;;;;12.10;2.10;;;3.30;90.80;;;;;;5112016;28;20097;-78
2021/04/07 07:14:55;;;;;;;16.95;2.22;;;3.30;91.10;;;;;;5110281;28;20047;-78
2021/04/07 07:17:34;;;;;;;5.63;1.30;;;3.40;91.30;;;;;;5099646;28;20048;-79
2021/04/07 07:20:02;;;;;;;11.32;2.00;;;3.50;91.10;;;;;;5111144;28;20056;-78
2021/04/07 07:22:30;;;;;;;11.23;2.55;;;3.60;91.20;;;;;;5111988;28;20051;-78
2021/04/07 07:24:58;;;;;;;10.25;2.22;;;3.80;91.40;;;;;;5112144;28;20059;-77
2021/04/07 07:27:43;;;;;;;13.35;2.42;;;3.90;91.40;;;;;;5111407;28;20572;-78
2021/04/07 07:30:12;;;;;;;11.65;2.08;;;4.00;91.50;;;;;;5112550;28;20120;-78
2021/04/07 07:32:41;;;;;;;13.55;2.30;;;4.10;91.50;;;;;;5112460;28;20384;-78
2021/04/07 07:35:16;;;;;;;12.27;2.08;;;4.30;91.60;;;;;;5111390;28;20487;-78
2021/04/07 07:37:42;;;;;;;14.30;2.00;;;4.40;91.40;;;;;;5112501;28;20211;-77
2021/04/07 07:40:28;;;;;;;12.18;1.95;;;4.50;91.30;;;;;;5080417;28;20502;-78
2021/04/07 07:42:55;;;;;;;12.93;2.10;;;4.60;91.10;;;;;;5110868;28;20052;-78
2021/04/07 07:45:34;;;;;;;12.88;2.08;;;4.60;91.00;;;;;;5106880;28;20443;-78
2021/04/07 07:48:17;;;;;;;15.35;2.15;;;4.70;90.90;;;;;;5111523;28;20062;-78
2021/04/07 07:50:44;;;;;;;;;;;4.80;90.90;;;;;;5112528;28;20089;-77
2021/04/07 07:53:20;;;;;;;9.18;1.60;;;4.80;91.20;;;;;;5112317;28;19966;-79
2021/04/07 07:55:50;;;;;;;14.85;1.88;;;4.90;90.80;;;;;;5110942;28;20056;-78
2021/04/07 07:58:17;;;;;;;10.93;1.77;;;4.90;90.70;;;;;;5108719;28;20047;-78
2021/04/07 08:00:42;;;;;;;13.90;1.70;;;5.00;90.70;;;;;;5104628;28;20075;-78
2021/04/07 08:03:10;;;;;;;11.85;1.77;;;5.00;90.70;;;;;;5104410;28;20129;-79
2021/04/07 08:05:36;;;;;;;8.65;1.90;;;5.00;90.60;;;;;;5114480;28;20063;-79
2021/04/07 08:08:03;;;;;;;9.05;1.23;;;5.00;90.70;;;;;;5113232;28;20076;-78
2021/04/07 08:10:32;;;;;;;10.48;1.75;;;5.00;90.60;;;;;;5101827;28;20150;-80
2021/04/07 08:13:00;;;;;;;8.38;1.50;;;5.00;90.60;;;;;;5107888;28;20135;-80
2021/04/07 08:15:28;;;;;;;13.75;1.60;;;5.10;90.80;;;;;;5114463;28;20073;-79
2021/04/07 08:17:54;;;;;;;11.93;1.60;;;5.10;90.90;;;;;;5112586;28;20048;-78
2021/04/07 08:20:20;;;;;;;10.23;1.42;;;5.10;90.90;;;;;;5098611;28;20492;-78
2021/04/07 08:22:47;;;;;;;10.00;1.70;;;5.20;90.80;;;;;;5114872;28;20051;-79
2021/04/07 08:25:15;;;;;;;13.32;2.38;;;5.20;90.80;;;;;;5106901;28;20460;-77
2021/04/07 08:27:42;;;;;;;11.23;2.33;;;5.20;90.80;;;;;;5107317;28;20435;-79
2021/04/07 08:30:08;;;;;;;15.20;2.65;;;5.30;90.80;;;;;;5106230;28;20506;-79
2021/04/07 08:32:35;;;;;;;14.45;2.25;;;5.30;90.70;;;;;;5106427;28;20070;-79
2021/04/07 08:35:03;;;;;;;10.73;2.20;;;5.40;90.70;;;;;;5114166;28;20047;-80
2021/04/07 08:37:31;;;;;;;15.57;2.03;;;5.40;90.70;;;;;;5114574;28;20043;-80
2021/04/07 08:40:09;;;;;;;14.15;2.40;;;5.40;90.70;;;;;;5115206;28;20051;-80
2021/04/07 08:42:36;;;;;;;14.65;2.40;;;5.50;90.80;;;;;;5104740;28;20085;-80
2021/04/07 08:45:08;;;;;;;20.02;2.80;;;5.50;90.80;;;;;;5095338;28;20382;-80
2021/04/07 08:47:44;;;;;;;14.60;2.85;;;5.60;90.80;;;;;;5114188;28;20040;-79
2021/04/07 08:50:14;;;;;;;11.15;1.63;;;5.60;90.80;;;;;;5107953;28;20043;-81
2021/04/07 08:52:52;;;;;;;11.82;1.85;;;5.60;90.50;;;;;;5102706;28;20488;-84
2021/04/07 08:55:20;;;;;;;9.32;1.77;;;5.50;90.30;;;;;;5098273;28;20126;-80
2021/04/07 08:57:58;;;;;;;8.88;2.00;;;5.50;90.20;;;;;;5110804;28;20043;-79
2021/04/07 09:00:26;;;;;;;12.18;2.20;;;5.40;90.30;;;;;;5114119;28;20475;-79
2021/04/07 09:03:17;;;;;;;15.50;2.47;;;5.20;90.30;;;;;;5108237;28;20586;-79
2021/04/07 09:05:43;;;;;;;14.68;2.58;;;5.20;90.50;;;;;;5106379;28;20057;-78
2021/04/07 09:08:09;;;;;;;15.93;2.53;;;5.20;90.60;;;;;;5114491;28;20051;-80
2021/04/07 09:11:07;;;;;;;25.17;3.30;;;5.10;90.70;;;;;;5113654;28;20052;-79
2021/04/07 09:13:35;;;;;;;24.65;3.30;;;5.20;90.90;;;;;;5060855;28;20138;-80
2021/04/07 09:16:08;;;;;;;27.27;3.35;;;5.20;91.00;;;;;;5112217;28;20047;-80
2021/04/07 09:18:37;;;;;;;18.08;3.35;;;5.30;91.10;;;;;;5105737;28;20077;-80
2021/04/07 09:21:05;;;;;;;20.00;3.13;;;5.30;91.10;;;;;;5105357;28;20127;-79
2021/04/07 09:23:33;;;;;;;29.38;5.05;;;5.30;91.10;;;;;;5108001;28;20046;-80
2021/04/07 09:26:22;;;;;;;25.15;3.95;;;5.40;91.10;;;;;;5111654;28;20047;-80
2021/04/07 09:28:52;;;;;;;26.85;4.55;;;5.40;91.20;;;;;;5105067;28;20392;-80
2021/04/07 09:31:23;;;;;;;24.65;4.35;;;5.40;91.20;;;;;;5109089;28;20092;-80
2021/04/07 09:33:54;;;;;;;20.90;3.38;;;5.50;91.20;;;;;;5102803;28;20586;-78
2021/04/07 09:36:34;;;;;;;27.98;3.70;;;5.50;91.00;;;;;;5102619;28;20044;-79
2021/04/07 09:39:09;;;;;;;23.25;3.67;;;5.60;90.80;;;;;;5113646;28;20047;-80
2021/04/07 09:41:36;;;;;;;24.30;3.47;;;5.60;90.70;;;;;;5111340;28;20039;-81
2021/04/07 09:44:05;;;;;;;20.63;3.30;;;5.70;90.50;;;;;;5106803;28;20047;-80
2021/04/07 09:46:31;;;;;;;27.88;3.95;;;5.70;90.20;;;;;;5107323;28;20126;-80
2021/04/07 09:49:08;;;;;;;18.88;2.95;;;5.70;90.10;;;;;;5112737;28;20096;-81
2021/04/07 09:51:34;;;;;;;16.50;3.15;;;5.80;89.60;;;;;;5113583;28;20039;-81
2021/04/07 09:54:17;;;;;;;18.08;3.00;;;5.80;89.30;;;;;;5101957;28;20533;-80
2021/04/07 09:57:02;;;;;;;17.60;2.75;;;5.90;88.90;;;;;;5108149;28;20059;-80
2021/04/07 09:59:32;;;;;;;16.30;2.58;;;5.90;88.40;;;;;;5076445;28;20131;-81
2021/04/07 10:01:58;;;;;;;20.65;3.25;;;6.00;88.40;;;;;;5102767;28;20063;-81
2021/04/07 10:04:31;;;;;;;21.35;3.42;;;6.00;87.90;;;;;;5111000;28;20055;-81
2021/04/07 10:07:17;;;;;;;16.55;2.70;;;6.10;87.70;;;;;;5110615;28;20383;-81
2021/04/07 10:09:48;;;;;;;16.98;3.50;;;6.10;87.20;;;;;;5103916;28;20044;-81
2021/04/07 10:12:15;;;;;;;17.05;2.85;;;6.10;86.70;;;;;;5110920;28;20467;-80
2021/04/07 10:14:54;;;;;;;15.60;2.80;;;6.20;86.30;;;;;;5113574;28;20051;-81
2021/04/07 10:17:22;;;;;;;18.48;3.30;;;6.30;85.50;;;;;;5113197;28;20119;-82
2021/04/07 10:19:48;;;;;;;16.15;2.13;;;6.30;85.40;;;;;;5112986;28;20491;-81
2021/04/07 10:22:32;;;;;;;18.88;2.78;;;6.40;85.20;;;;;;5112734;28;20059;-80
2021/04/07 10:25:22;;;;;;;16.50;2.55;;;6.50;84.10;;;;;;5112308;28;20051;-79
2021/04/07 10:27:49;;;;;;;17.00;2.90;;;6.60;84.70;;;;;;5110253;28;20075;-82
2021/04/07 10:30:16;;;;;;;14.32;2.20;;;6.70;84.50;;;;;;5112585;28;20058;-81
2021/04/07 10:32:47;;;;;;;15.20;3.25;;;6.80;84.30;;;;;;5107410;28;20043;-80
2021/04/07 10:35:27;;;;;;;14.57;2.80;;;6.90;83.60;;;;;;5108156;28;20055;-79
2021/04/07 10:37:58;;;;;;;19.13;2.65;;;6.90;82.60;;;;;;5098131;28;20068;-80
2021/04/07 10:40:27;;;;;;;15.38;2.17;;;6.90;83.10;;;;;;5098073;28;20460;-80
2021/04/07 10:42:53;;;;;;;13.68;1.83;;;6.90;83.10;;;;;;5107278;28;20055;-81
2021/04/07 10:45:21;;;;;;;15.90;2.50;;;6.90;83.20;;;;;;5109912;28;20095;-81
2021/04/07 10:47:48;;;;;;;18.80;2.20;;;6.80;83.50;;;;;;5084523;28;20048;-82
2021/04/07 10:50:15;;;;;;;13.05;2.72;;;6.70;83.90;;;;;;5106403;28;20040;-83
2021/04/07 10:52:42;;;;;;;15.50;3.15;;;6.70;84.40;;;;;;5100184;28;20133;-82
2021/04/07 10:55:21;;;;;;;13.07;2.40;;;6.60;84.80;;;;;;5111452;28;20055;-83
2021/04/07 10:57:48;;;;;;;13.18;1.92;;;6.50;85.30;;;;;;5111697;28;20388;-82
2021/04/07 11:00:30;;;;;;;17.70;2.95;;;6.50;85.70;;;;;;5109280;28;20051;-82
2021/04/07 11:02:56;;;;;;;17.55;2.60;;;6.50;86.20;;;;;;5103664;28;20259;-83
2021/04/07 11:05:25;;;;;;;18.60;2.80;;;6.40;86.30;;;;;;5105317;28;20047;-81
2021/04/07 11:08:05;;;;;;;14.82;2.50;;;6.40;86.30;;;;;;5111804;28;20048;-82
2021/04/07 11:10:37;;;;;;;16.45;2.25;;;6.40;86.10;;;;;;5112604;28;20054;-83
2021/04/07 11:13:04;;;;;;;13.83;2.07;;;6.30;85.80;;;;;;5096436;28;20056;-83
2021/04/07 11:15:30;;;;;;;10.13;1.83;;;6.30;85.80;;;;;;5112379;28;20545;-82
2021/04/07 11:17:56;;;;;;;12.30;2.13;;;6.30;85.90;;;;;;5097513;28;20054;-82
2021/04/07 11:20:22;;;;;;;17.63;2.78;;;6.30;86.00;;;;;;5104138;28;20048;-81
2021/04/07 11:22:49;;;;;;;13.02;2.40;;;6.40;86.30;;;;;;5105829;28;20049;-80
2021/04/07 11:25:15;;;;;;;15.13;2.65;;;6.40;86.60;;;;;;5110791;28;20074;-79
2021/04/07 11:27:40;;;;;;;15.63;2.13;;;6.50;86.50;;;;;;5111859;28;20051;-80
2021/04/07 11:30:09;;;;;;;8.38;1.60;;;6.50;86.00;;;;;;5108980;28;20059;-82
2021/04/07 11:32:39;;;;;;;16.13;2.20;;;6.50;85.70;;;;;;5112395;28;20040;-81
2021/04/07 11:35:12;;;;;;;12.93;2.10;;;6.50;85.70;;;;;;5115958;28;20047;-80
2021/04/07 11:40:20;;;;;;;13.50;2.22;;;6.30;86.10;;;;;;5115432;28;20445;-80
2021/04/07 11:43:06;;;;;;;10.88;1.83;;;6.30;86.60;;;;;;5116388;28;20105;-80
2021/04/07 11:45:32;;;;;;;15.80;2.42;;;6.30;86.70;;;;;;5112038;28;20047;-79
2021/04/07 11:47:58;;;;;;;15.65;2.47;;;6.20;86.90;;;;;;5103006;28;20048;-79
2021/04/07 11:50:24;;;;;;;16.30;2.08;;;6.30;86.90;;;;;;5111105;28;20047;-80
2021/04/07 11:52:49;;;;;;;18.38;2.50;;;6.30;86.90;;;;;;5114655;28;20475;-80
2021/04/07 11:55:16;;;;;;;17.13;3.03;;;6.30;87.00;;;;;;5111758;28;20075;-80
2021/04/07 11:57:42;;;;;;;14.93;2.83;;;6.30;87.20;;;;;;5110572;28;20100;-79
2021/04/07 12:00:10;;;;;;;13.65;2.65;;;6.40;86.80;;;;;;5114224;28;20445;-80
2021/04/07 12:02:40;;;;;;;24.45;3.28;;;6.40;86.60;;;;;;5110826;28;20054;-80
2021/04/07 12:05:07;;;;;;;19.55;2.95;;;6.40;86.70;;;;;;5098981;28;20048;-80
2021/04/07 12:07:33;;;;;;;13.55;2.78;;;6.40;86.40;;;;;;5115053;28;20043;-80
2021/04/07 12:09:58;;;;;;;21.75;3.05;;;6.40;86.30;;;;;;5101683;28;20044;-80
2021/04/07 12:12:24;;;;;;;18.55;2.80;;;6.50;86.30;;;;;;5107474;28;20092;-80
2021/04/07 12:14:49;;;;;;;14.57;2.70;;;6.50;86.20;;;;;;5101573;28;20135;-81
2021/04/07 12:17:15;;;;;;;18.73;3.00;;;6.50;86.10;;;;;;5102839;28;20043;-80
2021/04/07 12:19:41;;;;;;;20.52;3.03;;;6.60;85.70;;;;;;5113349;28;20058;-80
2021/04/07 12:22:07;;;;;;;18.58;2.95;;;6.60;84.90;;;;;;5099911;28;20048;-81
2021/04/07 12:24:32;;;;;;;22.27;3.03;;;6.60;85.00;;;;;;5106408;28;20061;-81
2021/04/07 12:26:58;;;;;;;17.70;3.00;;;6.50;85.10;;;;;;5110131;28;20047;-82
2021/04/07 12:29:24;;;;;;;19.52;3.20;;;6.50;85.30;;;;;;5113911;28;20475;-81
2021/04/07 12:31:51;;;;;;;14.82;2.38;;;6.40;85.50;;;;;;5114986;28;20100;-79
2021/04/07 12:34:17;;;;;;;16.63;2.38;;;6.40;85.90;;;;;;5115385;28;20047;-80
2021/04/07 12:36:42;;;;;;;10.98;1.75;;;6.40;86.10;;;;;;5114255;28;20129;-80
2021/04/07 12:39:08;;;;;;;12.45;2.05;;;6.40;85.90;;;;;;5115245;28;20048;-80
2021/04/07 12:44:03;;;;;;;14.50;2.00;;;6.40;86.00;;;;;;5113254;28;20075;-81
2021/04/07 12:46:29;;;;;;;16.05;2.13;;;6.50;85.70;;;;;;5112929;28;20054;-79
2021/04/07 12:48:57;;;;;;;11.98;1.98;;;6.40;84.70;;;;;;5105656;28;20059;-79
2021/04/07 12:51:28;;;;;;;10.38;1.75;;;6.40;84.60;;;;;;5107668;28;20177;-80
2021/04/07 12:53:57;;;;;;;11.20;1.73;;;6.40;84.90;;;;;;5114235;28;20095;-80
2021/04/07 12:56:24;;;;;;;17.75;2.55;;;6.40;84.70;;;;;;5105317;28;20077;-79
2021/04/07 12:58:50;;;;;;;14.93;1.80;;;6.40;84.40;;;;;;5105538;28;20051;-80
2021/04/07 13:01:18;;;;;;;12.55;2.17;;;6.40;84.60;;;;;;5107841;28;20078;-80
2021/04/07 13:03:43;;;;;;;9.20;1.58;;;6.40;84.30;;;;;;5110121;28;20051;-80
2021/04/07 13:06:09;;;;;;;10.48;2.03;;;6.50;84.10;;;;;;5113718;28;20384;-78